sensor_id;sensor_type;location;lat;lon;timestamp;P1;durP1;ratioP1;P2;durP2;ratioP2
48363;SDS011;34170;54.364;18.582;2023-04-24T00:00:25;34.55;;;20.85;;
48363;SDS011;34170;54.364;18.582;2023-04-24T00:03:13;38.30;;;21.73;;
48363;SDS011;34170;54.364;18.582;2023-04-24T00:05:41;37.67;;;23.50;;
48363;SDS011;34170;54.364;18.582;2023-04-24T00:08:08;35.95;;;22.38;;
48363;SDS011;34170;54.364;18.582;2023-04-24T00:10:36;33.53;;;21.35;;
48363;SDS011;34170;54.364;18.582;2023-04-24T00:13:03;36.75;;;23.33;;
48363;SDS011;34170;54.364;18.582;2023-04-24T00:15:31;37.92;;;23.83;;
48363;SDS011;34170;54.364;18.582;2023-04-24T00:17:58;36.58;;;22.92;;
48363;SDS011;34170;54.364;18.582;2023-04-24T00:20:28;37.67;;;22.90;;
48363;SDS011;34170;54.364;18.582;2023-04-24T00:23:02;34.55;;;22.10;;
48363;SDS011;34170;54.364;18.582;2023-04-24T00:25:30;36.75;;;23.17;;
48363;SDS011;34170;54.364;18.582;2023-04-24T00:27:57;39.70;;;23.55;;
48363;SDS011;34170;54.364;18.582;2023-04-24T00:30:24;35.20;;;22.17;;
48363;SDS011;34170;54.364;18.582;2023-04-24T00:32:52;34.45;;;21.67;;
48363;SDS011;34170;54.364;18.582;2023-04-24T00:35:19;36.45;;;23.45;;
48363;SDS011;34170;54.364;18.582;2023-04-24T00:37:46;36.70;;;23.63;;
48363;SDS011;34170;54.364;18.582;2023-04-24T00:40:14;36.95;;;25.30;;
48363;SDS011;34170;54.364;18.582;2023-04-24T00:42:42;39.58;;;24.75;;
48363;SDS011;34170;54.364;18.582;2023-04-24T00:45:11;41.28;;;24.55;;
48363;SDS011;34170;54.364;18.582;2023-04-24T00:47:39;36.92;;;24.13;;
48363;SDS011;34170;54.364;18.582;2023-04-24T00:50:08;36.40;;;24.05;;
48363;SDS011;34170;54.364;18.582;2023-04-24T00:52:36;42.15;;;26.27;;
48363;SDS011;34170;54.364;18.582;2023-04-24T00:55:04;38.72;;;25.25;;
48363;SDS011;34170;54.364;18.582;2023-04-24T00:57:32;40.15;;;26.38;;
48363;SDS011;34170;54.364;18.582;2023-04-24T01:00:00;42.22;;;26.98;;
48363;SDS011;34170;54.364;18.582;2023-04-24T01:02:27;39.45;;;25.88;;
48363;SDS011;34170;54.364;18.582;2023-04-24T01:04:55;39.65;;;25.40;;
48363;SDS011;34170;54.364;18.582;2023-04-24T01:07:23;40.97;;;26.08;;
48363;SDS011;34170;54.364;18.582;2023-04-24T01:09:52;48.40;;;26.45;;
48363;SDS011;34170;54.364;18.582;2023-04-24T01:12:19;44.97;;;27.00;;
48363;SDS011;34170;54.364;18.582;2023-04-24T01:14:47;39.58;;;26.27;;
48363;SDS011;34170;54.364;18.582;2023-04-24T01:17:15;48.95;;;28.15;;
48363;SDS011;34170;54.364;18.582;2023-04-24T01:19:42;54.13;;;29.95;;
48363;SDS011;34170;54.364;18.582;2023-04-24T01:22:14;47.83;;;27.90;;
48363;SDS011;34170;54.364;18.582;2023-04-24T01:24:42;46.85;;;27.83;;
48363;SDS011;34170;54.364;18.582;2023-04-24T01:27:11;44.63;;;27.92;;
48363;SDS011;34170;54.364;18.582;2023-04-24T01:29:39;51.35;;;27.30;;
48363;SDS011;34170;54.364;18.582;2023-04-24T01:32:09;56.03;;;31.17;;
48363;SDS011;34170;54.364;18.582;2023-04-24T01:34:37;53.75;;;30.33;;
48363;SDS011;34170;54.364;18.582;2023-04-24T01:37:05;53.67;;;28.52;;
48363;SDS011;34170;54.364;18.582;2023-04-24T01:39:33;47.70;;;27.35;;
48363;SDS011;34170;54.364;18.582;2023-04-24T01:42:00;45.03;;;25.73;;
48363;SDS011;34170;54.364;18.582;2023-04-24T01:44:29;49.30;;;27.13;;
48363;SDS011;34170;54.364;18.582;2023-04-24T01:46:57;44.30;;;24.90;;
48363;SDS011;34170;54.364;18.582;2023-04-24T01:49:25;45.00;;;24.73;;
48363;SDS011;34170;54.364;18.582;2023-04-24T01:51:52;42.92;;;24.35;;
48363;SDS011;34170;54.364;18.582;2023-04-24T01:54:20;38.40;;;21.33;;
48363;SDS011;34170;54.364;18.582;2023-04-24T01:56:47;40.83;;;22.10;;
48363;SDS011;34170;54.364;18.582;2023-04-24T01:59:15;38.92;;;21.23;;
48363;SDS011;34170;54.364;18.582;2023-04-24T02:01:45;37.95;;;22.30;;
48363;SDS011;34170;54.364;18.582;2023-04-24T02:04:12;41.95;;;23.77;;
48363;SDS011;34170;54.364;18.582;2023-04-24T02:06:41;35.47;;;20.98;;
48363;SDS011;34170;54.364;18.582;2023-04-24T02:09:09;41.30;;;21.95;;
48363;SDS011;34170;54.364;18.582;2023-04-24T02:11:37;35.33;;;19.70;;
48363;SDS011;34170;54.364;18.582;2023-04-24T02:14:05;35.53;;;19.50;;
48363;SDS011;34170;54.364;18.582;2023-04-24T02:16:32;38.97;;;20.30;;
48363;SDS011;34170;54.364;18.582;2023-04-24T02:19:00;37.40;;;20.67;;
48363;SDS011;34170;54.364;18.582;2023-04-24T02:21:27;42.58;;;20.35;;
48363;SDS011;34170;54.364;18.582;2023-04-24T02:23:55;34.47;;;20.08;;
48363;SDS011;34170;54.364;18.582;2023-04-24T02:26:22;37.42;;;19.52;;
48363;SDS011;34170;54.364;18.582;2023-04-24T02:28:51;35.05;;;20.80;;
48363;SDS011;34170;54.364;18.582;2023-04-24T02:31:20;32.42;;;19.88;;
48363;SDS011;34170;54.364;18.582;2023-04-24T02:33:47;32.15;;;19.13;;
48363;SDS011;34170;54.364;18.582;2023-04-24T02:36:15;28.42;;;17.15;;
48363;SDS011;34170;54.364;18.582;2023-04-24T02:38:42;35.58;;;19.80;;
48363;SDS011;34170;54.364;18.582;2023-04-24T02:41:12;35.90;;;18.85;;
48363;SDS011;34170;54.364;18.582;2023-04-24T02:43:42;32.05;;;18.75;;
48363;SDS011;34170;54.364;18.582;2023-04-24T02:46:09;33.70;;;19.08;;
48363;SDS011;34170;54.364;18.582;2023-04-24T02:48:36;35.28;;;19.90;;
48363;SDS011;34170;54.364;18.582;2023-04-24T02:51:05;37.97;;;20.58;;
48363;SDS011;34170;54.364;18.582;2023-04-24T02:53:33;35.92;;;21.00;;
48363;SDS011;34170;54.364;18.582;2023-04-24T02:56:01;37.50;;;20.80;;
48363;SDS011;34170;54.364;18.582;2023-04-24T02:58:29;40.60;;;21.60;;
48363;SDS011;34170;54.364;18.582;2023-04-24T03:00:57;39.17;;;21.50;;
48363;SDS011;34170;54.364;18.582;2023-04-24T03:03:24;43.90;;;21.25;;
48363;SDS011;34170;54.364;18.582;2023-04-24T03:05:52;39.67;;;20.00;;
48363;SDS011;34170;54.364;18.582;2023-04-24T03:08:19;42.47;;;20.98;;
48363;SDS011;34170;54.364;18.582;2023-04-24T03:10:47;42.40;;;21.30;;
48363;SDS011;34170;54.364;18.582;2023-04-24T03:13:15;37.65;;;19.52;;
48363;SDS011;34170;54.364;18.582;2023-04-24T03:15:43;36.78;;;18.92;;
48363;SDS011;34170;54.364;18.582;2023-04-24T03:18:12;37.90;;;21.23;;
48363;SDS011;34170;54.364;18.582;2023-04-24T03:20:39;35.55;;;19.65;;
48363;SDS011;34170;54.364;18.582;2023-04-24T03:23:07;41.80;;;20.08;;
48363;SDS011;34170;54.364;18.582;2023-04-24T03:25:35;34.33;;;19.17;;
48363;SDS011;34170;54.364;18.582;2023-04-24T03:28:03;37.95;;;19.13;;
48363;SDS011;34170;54.364;18.582;2023-04-24T03:30:41;30.48;;;17.55;;
48363;SDS011;34170;54.364;18.582;2023-04-24T03:33:09;36.15;;;18.70;;
48363;SDS011;34170;54.364;18.582;2023-04-24T03:35:44;40.15;;;21.13;;
48363;SDS011;34170;54.364;18.582;2023-04-24T03:38:12;38.53;;;19.63;;
48363;SDS011;34170;54.364;18.582;2023-04-24T03:40:58;33.95;;;19.58;;
48363;SDS011;34170;54.364;18.582;2023-04-24T03:43:36;37.03;;;19.75;;
48363;SDS011;34170;54.364;18.582;2023-04-24T03:46:04;38.08;;;20.73;;
48363;SDS011;34170;54.364;18.582;2023-04-24T03:48:36;32.90;;;19.23;;
48363;SDS011;34170;54.364;18.582;2023-04-24T03:51:03;33.90;;;19.75;;
48363;SDS011;34170;54.364;18.582;2023-04-24T03:53:31;34.28;;;19.15;;
48363;SDS011;34170;54.364;18.582;2023-04-24T03:55:59;29.15;;;18.58;;
48363;SDS011;34170;54.364;18.582;2023-04-24T03:58:29;30.77;;;18.33;;
48363;SDS011;34170;54.364;18.582;2023-04-24T04:00:56;31.77;;;18.42;;
48363;SDS011;34170;54.364;18.582;2023-04-24T04:03:34;29.17;;;17.33;;
48363;SDS011;34170;54.364;18.582;2023-04-24T04:06:02;36.50;;;19.58;;
48363;SDS011;34170;54.364;18.582;2023-04-24T04:08:29;29.48;;;19.35;;
48363;SDS011;34170;54.364;18.582;2023-04-24T04:10:57;32.08;;;18.40;;
48363;SDS011;34170;54.364;18.582;2023-04-24T04:13:24;30.92;;;17.65;;
48363;SDS011;34170;54.364;18.582;2023-04-24T04:15:52;34.60;;;18.73;;
48363;SDS011;34170;54.364;18.582;2023-04-24T04:18:20;37.33;;;19.73;;
48363;SDS011;34170;54.364;18.582;2023-04-24T04:20:47;36.78;;;18.52;;
48363;SDS011;34170;54.364;18.582;2023-04-24T04:23:15;35.10;;;18.50;;
48363;SDS011;34170;54.364;18.582;2023-04-24T04:26:03;35.90;;;17.83;;
48363;SDS011;34170;54.364;18.582;2023-04-24T04:28:46;35.45;;;18.60;;
48363;SDS011;34170;54.364;18.582;2023-04-24T04:31:15;35.58;;;17.67;;
48363;SDS011;34170;54.364;18.582;2023-04-24T04:33:42;32.40;;;17.23;;
48363;SDS011;34170;54.364;18.582;2023-04-24T04:36:09;31.58;;;16.98;;
48363;SDS011;34170;54.364;18.582;2023-04-24T04:38:42;35.25;;;17.70;;
48363;SDS011;34170;54.364;18.582;2023-04-24T04:41:23;31.90;;;17.42;;
48363;SDS011;34170;54.364;18.582;2023-04-24T04:43:51;29.98;;;16.95;;
48363;SDS011;34170;54.364;18.582;2023-04-24T04:46:20;28.40;;;16.85;;
48363;SDS011;34170;54.364;18.582;2023-04-24T04:49:02;34.92;;;16.60;;
48363;SDS011;34170;54.364;18.582;2023-04-24T04:51:30;34.65;;;18.02;;
48363;SDS011;34170;54.364;18.582;2023-04-24T04:53:58;31.50;;;16.50;;
48363;SDS011;34170;54.364;18.582;2023-04-24T04:56:25;29.42;;;16.98;;
48363;SDS011;34170;54.364;18.582;2023-04-24T04:58:53;26.75;;;14.77;;
48363;SDS011;34170;54.364;18.582;2023-04-24T05:01:21;29.00;;;16.17;;
48363;SDS011;34170;54.364;18.582;2023-04-24T05:03:50;26.52;;;14.75;;
48363;SDS011;34170;54.364;18.582;2023-04-24T05:06:18;27.40;;;14.88;;
48363;SDS011;34170;54.364;18.582;2023-04-24T05:08:48;26.73;;;15.18;;
48363;SDS011;34170;54.364;18.582;2023-04-24T05:11:25;26.90;;;14.27;;
48363;SDS011;34170;54.364;18.582;2023-04-24T05:13:55;26.33;;;14.15;;
48363;SDS011;34170;54.364;18.582;2023-04-24T05:16:31;26.80;;;14.88;;
48363;SDS011;34170;54.364;18.582;2023-04-24T05:18:59;27.95;;;14.90;;
48363;SDS011;34170;54.364;18.582;2023-04-24T05:21:32;25.27;;;15.07;;
48363;SDS011;34170;54.364;18.582;2023-04-24T05:24:00;28.27;;;15.63;;
48363;SDS011;34170;54.364;18.582;2023-04-24T05:26:42;29.95;;;16.60;;
48363;SDS011;34170;54.364;18.582;2023-04-24T05:29:10;24.25;;;15.20;;
48363;SDS011;34170;54.364;18.582;2023-04-24T05:31:38;27.95;;;14.45;;
48363;SDS011;34170;54.364;18.582;2023-04-24T05:34:06;28.15;;;14.82;;
48363;SDS011;34170;54.364;18.582;2023-04-24T05:36:34;27.27;;;14.20;;
48363;SDS011;34170;54.364;18.582;2023-04-24T05:39:02;22.17;;;14.32;;
48363;SDS011;34170;54.364;18.582;2023-04-24T05:41:34;24.05;;;14.93;;
48363;SDS011;34170;54.364;18.582;2023-04-24T05:44:01;30.17;;;16.15;;
48363;SDS011;34170;54.364;18.582;2023-04-24T05:46:29;28.20;;;15.80;;
48363;SDS011;34170;54.364;18.582;2023-04-24T05:48:56;25.60;;;14.63;;
48363;SDS011;34170;54.364;18.582;2023-04-24T05:51:24;28.85;;;15.27;;
48363;SDS011;34170;54.364;18.582;2023-04-24T05:53:52;23.73;;;15.15;;
48363;SDS011;34170;54.364;18.582;2023-04-24T05:56:20;27.65;;;15.23;;
48363;SDS011;34170;54.364;18.582;2023-04-24T05:58:49;23.23;;;14.65;;
48363;SDS011;34170;54.364;18.582;2023-04-24T06:01:17;30.63;;;15.77;;
48363;SDS011;34170;54.364;18.582;2023-04-24T06:03:50;25.63;;;15.57;;
48363;SDS011;34170;54.364;18.582;2023-04-24T06:06:19;32.53;;;14.43;;
48363;SDS011;34170;54.364;18.582;2023-04-24T06:08:48;24.63;;;14.95;;
48363;SDS011;34170;54.364;18.582;2023-04-24T06:11:15;28.63;;;13.63;;
48363;SDS011;34170;54.364;18.582;2023-04-24T06:13:43;27.15;;;13.65;;
48363;SDS011;34170;54.364;18.582;2023-04-24T06:16:36;25.30;;;13.30;;
48363;SDS011;34170;54.364;18.582;2023-04-24T06:19:16;21.95;;;12.07;;
48363;SDS011;34170;54.364;18.582;2023-04-24T06:21:44;29.33;;;12.65;;
48363;SDS011;34170;54.364;18.582;2023-04-24T06:24:13;24.27;;;12.50;;
48363;SDS011;34170;54.364;18.582;2023-04-24T06:26:41;25.05;;;12.75;;
48363;SDS011;34170;54.364;18.582;2023-04-24T06:29:09;26.42;;;13.65;;
48363;SDS011;34170;54.364;18.582;2023-04-24T06:31:36;32.58;;;14.55;;
48363;SDS011;34170;54.364;18.582;2023-04-24T06:34:04;26.45;;;13.57;;
48363;SDS011;34170;54.364;18.582;2023-04-24T06:36:31;28.60;;;13.07;;
48363;SDS011;34170;54.364;18.582;2023-04-24T06:39:01;29.67;;;12.93;;
48363;SDS011;34170;54.364;18.582;2023-04-24T06:41:28;27.33;;;13.45;;
48363;SDS011;34170;54.364;18.582;2023-04-24T06:43:56;31.48;;;12.90;;
48363;SDS011;34170;54.364;18.582;2023-04-24T06:46:23;39.53;;;15.13;;
48363;SDS011;34170;54.364;18.582;2023-04-24T06:48:53;28.42;;;13.63;;
48363;SDS011;34170;54.364;18.582;2023-04-24T06:51:24;23.98;;;11.85;;
48363;SDS011;34170;54.364;18.582;2023-04-24T06:53:53;26.38;;;11.55;;
48363;SDS011;34170;54.364;18.582;2023-04-24T06:56:21;15.05;;;8.60;;
48363;SDS011;34170;54.364;18.582;2023-04-24T06:58:49;17.08;;;7.55;;
48363;SDS011;34170;54.364;18.582;2023-04-24T07:01:16;11.30;;;6.03;;
48363;SDS011;34170;54.364;18.582;2023-04-24T07:03:44;14.00;;;6.00;;
48363;SDS011;34170;54.364;18.582;2023-04-24T07:06:11;10.07;;;5.00;;
48363;SDS011;34170;54.364;18.582;2023-04-24T07:08:39;8.05;;;5.70;;
48363;SDS011;34170;54.364;18.582;2023-04-24T07:11:08;8.35;;;5.03;;
48363;SDS011;34170;54.364;18.582;2023-04-24T07:13:36;8.75;;;4.60;;
48363;SDS011;34170;54.364;18.582;2023-04-24T07:16:03;10.90;;;4.85;;
48363;SDS011;34170;54.364;18.582;2023-04-24T07:18:31;8.25;;;4.93;;
48363;SDS011;34170;54.364;18.582;2023-04-24T07:20:58;12.85;;;5.68;;
48363;SDS011;34170;54.364;18.582;2023-04-24T07:23:25;11.38;;;5.35;;
48363;SDS011;34170;54.364;18.582;2023-04-24T07:25:53;10.80;;;5.45;;
48363;SDS011;34170;54.364;18.582;2023-04-24T07:28:20;13.20;;;6.00;;
48363;SDS011;34170;54.364;18.582;2023-04-24T07:30:47;11.23;;;6.80;;
48363;SDS011;34170;54.364;18.582;2023-04-24T07:33:15;11.13;;;6.53;;
48363;SDS011;34170;54.364;18.582;2023-04-24T07:35:42;12.57;;;5.85;;
48363;SDS011;34170;54.364;18.582;2023-04-24T07:38:10;14.10;;;7.03;;
48363;SDS011;34170;54.364;18.582;2023-04-24T07:40:38;16.35;;;7.72;;
48363;SDS011;34170;54.364;18.582;2023-04-24T07:43:05;18.13;;;7.53;;
48363;SDS011;34170;54.364;18.582;2023-04-24T07:45:32;12.05;;;7.65;;
48363;SDS011;34170;54.364;18.582;2023-04-24T07:48:04;13.85;;;7.68;;
48363;SDS011;34170;54.364;18.582;2023-04-24T07:50:31;13.73;;;7.13;;
48363;SDS011;34170;54.364;18.582;2023-04-24T07:52:59;23.90;;;9.13;;
48363;SDS011;34170;54.364;18.582;2023-04-24T07:55:26;19.08;;;8.30;;
48363;SDS011;34170;54.364;18.582;2023-04-24T07:57:54;24.85;;;9.52;;
48363;SDS011;34170;54.364;18.582;2023-04-24T08:00:21;16.17;;;8.93;;
48363;SDS011;34170;54.364;18.582;2023-04-24T08:02:49;17.90;;;10.10;;
48363;SDS011;34170;54.364;18.582;2023-04-24T08:05:16;18.98;;;9.98;;
48363;SDS011;34170;54.364;18.582;2023-04-24T08:07:45;16.52;;;10.35;;
48363;SDS011;34170;54.364;18.582;2023-04-24T08:10:15;14.75;;;9.88;;
48363;SDS011;34170;54.364;18.582;2023-04-24T08:12:43;17.88;;;9.93;;
48363;SDS011;34170;54.364;18.582;2023-04-24T08:15:10;16.92;;;10.30;;
48363;SDS011;34170;54.364;18.582;2023-04-24T08:17:37;20.88;;;11.20;;
48363;SDS011;34170;54.364;18.582;2023-04-24T08:20:05;16.10;;;10.35;;
48363;SDS011;34170;54.364;18.582;2023-04-24T08:22:37;19.63;;;11.73;;
48363;SDS011;34170;54.364;18.582;2023-04-24T08:25:04;17.15;;;11.18;;
48363;SDS011;34170;54.364;18.582;2023-04-24T08:27:32;17.30;;;11.60;;
48363;SDS011;34170;54.364;18.582;2023-04-24T08:29:59;17.98;;;11.30;;
48363;SDS011;34170;54.364;18.582;2023-04-24T08:32:27;21.85;;;13.55;;
48363;SDS011;34170;54.364;18.582;2023-04-24T08:34:57;19.27;;;12.82;;
48363;SDS011;34170;54.364;18.582;2023-04-24T08:37:26;18.83;;;12.88;;
48363;SDS011;34170;54.364;18.582;2023-04-24T08:39:54;19.83;;;12.85;;
48363;SDS011;34170;54.364;18.582;2023-04-24T08:42:21;20.92;;;13.63;;
48363;SDS011;34170;54.364;18.582;2023-04-24T08:44:49;22.05;;;14.10;;
48363;SDS011;34170;54.364;18.582;2023-04-24T08:47:17;17.70;;;12.55;;
48363;SDS011;34170;54.364;18.582;2023-04-24T08:49:47;16.27;;;12.18;;
48363;SDS011;34170;54.364;18.582;2023-04-24T08:52:15;17.33;;;12.65;;
48363;SDS011;34170;54.364;18.582;2023-04-24T08:54:43;19.48;;;12.50;;
48363;SDS011;34170;54.364;18.582;2023-04-24T08:57:14;16.77;;;12.15;;
48363;SDS011;34170;54.364;18.582;2023-04-24T08:59:42;16.55;;;11.85;;
48363;SDS011;34170;54.364;18.582;2023-04-24T09:02:11;16.77;;;12.43;;
48363;SDS011;34170;54.364;18.582;2023-04-24T09:04:41;42.60;;;15.15;;
48363;SDS011;34170;54.364;18.582;2023-04-24T09:07:10;16.60;;;11.50;;
48363;SDS011;34170;54.364;18.582;2023-04-24T09:09:39;19.65;;;13.80;;
48363;SDS011;34170;54.364;18.582;2023-04-24T09:12:09;17.90;;;12.30;;
48363;SDS011;34170;54.364;18.582;2023-04-24T09:14:37;19.63;;;14.30;;
48363;SDS011;34170;54.364;18.582;2023-04-24T09:17:12;25.25;;;16.25;;
48363;SDS011;34170;54.364;18.582;2023-04-24T09:19:39;22.90;;;14.98;;
48363;SDS011;34170;54.364;18.582;2023-04-24T09:22:09;23.42;;;15.52;;
48363;SDS011;34170;54.364;18.582;2023-04-24T09:24:36;21.42;;;15.70;;
48363;SDS011;34170;54.364;18.582;2023-04-24T09:30:10;20.83;;;15.55;;
48363;SDS011;34170;54.364;18.582;2023-04-24T09:32:38;21.27;;;15.20;;
48363;SDS011;34170;54.364;18.582;2023-04-24T09:35:13;22.77;;;16.02;;
48363;SDS011;34170;54.364;18.582;2023-04-24T09:37:43;25.25;;;15.95;;
48363;SDS011;34170;54.364;18.582;2023-04-24T09:40:20;23.30;;;16.40;;
48363;SDS011;34170;54.364;18.582;2023-04-24T09:42:53;26.13;;;17.58;;
48363;SDS011;34170;54.364;18.582;2023-04-24T09:45:34;20.92;;;15.18;;
48363;SDS011;34170;54.364;18.582;2023-04-24T09:48:03;21.02;;;15.35;;
48363;SDS011;34170;54.364;18.582;2023-04-24T09:50:33;22.27;;;16.77;;
48363;SDS011;34170;54.364;18.582;2023-04-24T09:53:02;27.77;;;16.83;;
48363;SDS011;34170;54.364;18.582;2023-04-24T09:55:31;24.77;;;16.20;;
48363;SDS011;34170;54.364;18.582;2023-04-24T09:58:00;21.95;;;14.88;;
48363;SDS011;34170;54.364;18.582;2023-04-24T10:00:28;23.90;;;15.57;;
48363;SDS011;34170;54.364;18.582;2023-04-24T10:09:12;20.40;;;14.85;;
48363;SDS011;34170;54.364;18.582;2023-04-24T10:11:44;21.13;;;14.38;;
48363;SDS011;34170;54.364;18.582;2023-04-24T10:14:13;18.55;;;13.38;;
48363;SDS011;34170;54.364;18.582;2023-04-24T10:16:42;18.30;;;12.88;;
48363;SDS011;34170;54.364;18.582;2023-04-24T10:19:10;19.40;;;14.68;;
48363;SDS011;34170;54.364;18.582;2023-04-24T10:21:40;19.23;;;14.63;;
48363;SDS011;34170;54.364;18.582;2023-04-24T10:24:16;19.35;;;13.60;;
48363;SDS011;34170;54.364;18.582;2023-04-24T10:26:45;19.38;;;14.05;;
48363;SDS011;34170;54.364;18.582;2023-04-24T10:29:16;22.83;;;15.13;;
48363;SDS011;34170;54.364;18.582;2023-04-24T10:31:45;19.92;;;15.00;;
48363;SDS011;34170;54.364;18.582;2023-04-24T10:34:14;18.90;;;14.25;;
48363;SDS011;34170;54.364;18.582;2023-04-24T10:36:48;18.95;;;13.18;;
48363;SDS011;34170;54.364;18.582;2023-04-24T10:39:20;18.20;;;13.38;;
48363;SDS011;34170;54.364;18.582;2023-04-24T10:41:54;21.80;;;14.55;;
48363;SDS011;34170;54.364;18.582;2023-04-24T10:44:24;20.65;;;13.30;;
48363;SDS011;34170;54.364;18.582;2023-04-24T10:46:54;18.95;;;13.18;;
48363;SDS011;34170;54.364;18.582;2023-04-24T10:49:29;231.57;;;34.95;;
48363;SDS011;34170;54.364;18.582;2023-04-24T10:52:01;24.95;;;14.52;;
48363;SDS011;34170;54.364;18.582;2023-04-24T10:54:44;22.83;;;13.27;;
48363;SDS011;34170;54.364;18.582;2023-04-24T11:02:42;26.67;;;14.35;;
48363;SDS011;34170;54.364;18.582;2023-04-24T11:05:16;19.20;;;13.18;;
48363;SDS011;34170;54.364;18.582;2023-04-24T11:10:40;16.40;;;12.30;;
48363;SDS011;34170;54.364;18.582;2023-04-24T11:13:15;16.40;;;11.93;;
48363;SDS011;34170;54.364;18.582;2023-04-24T11:15:43;18.50;;;12.63;;
48363;SDS011;34170;54.364;18.582;2023-04-24T11:18:14;18.73;;;13.10;;
48363;SDS011;34170;54.364;18.582;2023-04-24T11:20:43;21.35;;;12.73;;
48363;SDS011;34170;54.364;18.582;2023-04-24T11:23:12;18.90;;;11.85;;
48363;SDS011;34170;54.364;18.582;2023-04-24T11:25:41;22.75;;;13.32;;
48363;SDS011;34170;54.364;18.582;2023-04-24T11:28:09;22.35;;;13.27;;
48363;SDS011;34170;54.364;18.582;2023-04-24T11:30:43;21.38;;;13.32;;
48363;SDS011;34170;54.364;18.582;2023-04-24T11:33:10;19.35;;;13.52;;
48363;SDS011;34170;54.364;18.582;2023-04-24T11:35:41;29.27;;;15.93;;
48363;SDS011;34170;54.364;18.582;2023-04-24T11:38:08;20.13;;;12.55;;
48363;SDS011;34170;54.364;18.582;2023-04-24T11:40:40;19.80;;;12.73;;
48363;SDS011;34170;54.364;18.582;2023-04-24T11:43:09;18.30;;;12.48;;
48363;SDS011;34170;54.364;18.582;2023-04-24T11:45:37;35.33;;;13.80;;
48363;SDS011;34170;54.364;18.582;2023-04-24T11:48:04;23.15;;;12.98;;
48363;SDS011;34170;54.364;18.582;2023-04-24T11:50:32;20.02;;;11.75;;
48363;SDS011;34170;54.364;18.582;2023-04-24T11:53:00;18.67;;;9.85;;
48363;SDS011;34170;54.364;18.582;2023-04-24T11:55:28;13.68;;;8.52;;
48363;SDS011;34170;54.364;18.582;2023-04-24T11:57:57;9.68;;;6.55;;
48363;SDS011;34170;54.364;18.582;2023-04-24T12:00:27;7.45;;;5.53;;
48363;SDS011;34170;54.364;18.582;2023-04-24T12:03:06;6.75;;;4.90;;
48363;SDS011;34170;54.364;18.582;2023-04-24T12:05:36;9.25;;;4.90;;
48363;SDS011;34170;54.364;18.582;2023-04-24T12:08:03;8.50;;;4.45;;
48363;SDS011;34170;54.364;18.582;2023-04-24T12:10:32;6.22;;;3.92;;
48363;SDS011;34170;54.364;18.582;2023-04-24T12:13:01;6.63;;;3.42;;
48363;SDS011;34170;54.364;18.582;2023-04-24T12:15:29;7.20;;;4.22;;
48363;SDS011;34170;54.364;18.582;2023-04-24T12:17:56;5.72;;;4.35;;
48363;SDS011;34170;54.364;18.582;2023-04-24T12:20:26;6.45;;;3.75;;
48363;SDS011;34170;54.364;18.582;2023-04-24T12:22:56;8.37;;;4.23;;
48363;SDS011;34170;54.364;18.582;2023-04-24T12:25:25;6.70;;;4.03;;
48363;SDS011;34170;54.364;18.582;2023-04-24T12:30:26;7.82;;;4.22;;
48363;SDS011;34170;54.364;18.582;2023-04-24T12:32:56;9.80;;;4.40;;
48363;SDS011;34170;54.364;18.582;2023-04-24T12:35:29;9.20;;;4.70;;
48363;SDS011;34170;54.364;18.582;2023-04-24T12:38:05;5.90;;;3.78;;
48363;SDS011;34170;54.364;18.582;2023-04-24T12:40:37;4.97;;;3.25;;
48363;SDS011;34170;54.364;18.582;2023-04-24T12:43:17;6.22;;;3.53;;
48363;SDS011;34170;54.364;18.582;2023-04-24T12:45:49;5.50;;;2.60;;
48363;SDS011;34170;54.364;18.582;2023-04-24T12:48:16;12.20;;;3.50;;
48363;SDS011;34170;54.364;18.582;2023-04-24T12:50:44;4.10;;;2.88;;
48363;SDS011;34170;54.364;18.582;2023-04-24T12:53:13;7.15;;;3.55;;
48363;SDS011;34170;54.364;18.582;2023-04-24T12:55:42;7.60;;;3.60;;
48363;SDS011;34170;54.364;18.582;2023-04-24T12:58:09;4.45;;;2.92;;
48363;SDS011;34170;54.364;18.582;2023-04-24T13:00:37;5.40;;;3.40;;
48363;SDS011;34170;54.364;18.582;2023-04-24T13:03:05;6.43;;;2.97;;
48363;SDS011;34170;54.364;18.582;2023-04-24T13:05:33;7.80;;;3.05;;
48363;SDS011;34170;54.364;18.582;2023-04-24T13:08:00;5.15;;;2.97;;
48363;SDS011;34170;54.364;18.582;2023-04-24T13:10:28;6.97;;;2.70;;
48363;SDS011;34170;54.364;18.582;2023-04-24T13:12:55;3.75;;;2.90;;
48363;SDS011;34170;54.364;18.582;2023-04-24T13:15:23;6.28;;;2.90;;
48363;SDS011;34170;54.364;18.582;2023-04-24T13:17:53;6.80;;;3.22;;
48363;SDS011;34170;54.364;18.582;2023-04-24T13:20:21;4.60;;;2.92;;
48363;SDS011;34170;54.364;18.582;2023-04-24T13:22:48;9.25;;;3.53;;
48363;SDS011;34170;54.364;18.582;2023-04-24T13:25:15;5.13;;;3.10;;
48363;SDS011;34170;54.364;18.582;2023-04-24T13:27:44;3.88;;;2.58;;
48363;SDS011;34170;54.364;18.582;2023-04-24T13:30:11;4.55;;;3.05;;
48363;SDS011;34170;54.364;18.582;2023-04-24T13:32:39;5.10;;;3.25;;
48363;SDS011;34170;54.364;18.582;2023-04-24T13:35:07;5.03;;;2.63;;
48363;SDS011;34170;54.364;18.582;2023-04-24T13:37:34;5.18;;;2.92;;
48363;SDS011;34170;54.364;18.582;2023-04-24T13:40:02;3.80;;;3.17;;
48363;SDS011;34170;54.364;18.582;2023-04-24T13:42:33;6.47;;;3.38;;
48363;SDS011;34170;54.364;18.582;2023-04-24T13:45:00;6.00;;;2.72;;
48363;SDS011;34170;54.364;18.582;2023-04-24T13:47:43;6.68;;;3.15;;
48363;SDS011;34170;54.364;18.582;2023-04-24T13:50:10;3.60;;;2.65;;
48363;SDS011;34170;54.364;18.582;2023-04-24T13:52:38;9.45;;;2.95;;
48363;SDS011;34170;54.364;18.582;2023-04-24T13:55:06;5.18;;;2.20;;
48363;SDS011;34170;54.364;18.582;2023-04-24T13:57:33;5.20;;;2.70;;
48363;SDS011;34170;54.364;18.582;2023-04-24T14:00:01;5.80;;;2.67;;
48363;SDS011;34170;54.364;18.582;2023-04-24T14:02:32;4.75;;;2.80;;
48363;SDS011;34170;54.364;18.582;2023-04-24T14:05:00;5.32;;;3.15;;
48363;SDS011;34170;54.364;18.582;2023-04-24T14:07:28;4.30;;;3.63;;
48363;SDS011;34170;54.364;18.582;2023-04-24T14:09:55;7.38;;;3.33;;
48363;SDS011;34170;54.364;18.582;2023-04-24T14:12:23;10.55;;;3.33;;
48363;SDS011;34170;54.364;18.582;2023-04-24T14:14:51;6.50;;;3.50;;
48363;SDS011;34170;54.364;18.582;2023-04-24T14:17:18;6.60;;;3.50;;
48363;SDS011;34170;54.364;18.582;2023-04-24T14:19:45;7.07;;;3.35;;
48363;SDS011;34170;54.364;18.582;2023-04-24T14:22:13;3.80;;;2.67;;
48363;SDS011;34170;54.364;18.582;2023-04-24T14:24:40;6.68;;;3.08;;
48363;SDS011;34170;54.364;18.582;2023-04-24T14:27:08;5.80;;;3.40;;
48363;SDS011;34170;54.364;18.582;2023-04-24T14:29:35;5.50;;;3.50;;
48363;SDS011;34170;54.364;18.582;2023-04-24T14:32:03;6.60;;;3.25;;
48363;SDS011;34170;54.364;18.582;2023-04-24T14:34:30;6.82;;;3.60;;
48363;SDS011;34170;54.364;18.582;2023-04-24T14:36:57;5.32;;;3.50;;
48363;SDS011;34170;54.364;18.582;2023-04-24T14:39:26;8.90;;;3.50;;
48363;SDS011;34170;54.364;18.582;2023-04-24T14:41:53;5.20;;;3.20;;
48363;SDS011;34170;54.364;18.582;2023-04-24T14:44:20;4.68;;;3.40;;
48363;SDS011;34170;54.364;18.582;2023-04-24T14:46:48;8.20;;;3.85;;